createdAt,value
2017-12-28T00:00:16.516Z,0
2017-12-28T00:00:44.529Z,0
2017-12-28T00:01:28.653Z,0
2017-12-28T00:02:00.531Z,0
2017-12-28T00:02:28.700Z,0
2017-12-28T00:03:26.880Z,0
2017-12-28T00:03:56.493Z,0
2017-12-28T00:04:25.364Z,0
2017-12-28T00:04:54.572Z,0
2017-12-28T00:05:23.537Z,0
2017-12-28T00:05:52.329Z,0
2017-12-28T00:06:21.705Z,0
2017-12-28T00:06:50.986Z,0
2017-12-28T00:07:19.121Z,0
2017-12-28T00:07:49.124Z,0
2017-12-28T00:08:18.980Z,0
2017-12-28T00:10:00.344Z,0
2017-12-28T00:11:12.542Z,0
2017-12-28T00:11:55.642Z,0
2017-12-28T00:12:40.234Z,0
2017-12-28T00:13:09.375Z,0
2017-12-28T00:13:37.790Z,0
2017-12-28T00:14:07.054Z,0
2017-12-28T00:14:41.361Z,0
2017-12-28T00:16:37.416Z,0
2017-12-28T00:17:06.162Z,0
2017-12-28T00:17:35.784Z,0
2017-12-28T00:18:05.876Z,0
2017-12-28T00:18:34.828Z,0
2017-12-28T00:19:04.030Z,0
2017-12-28T00:19:32.849Z,0
2017-12-28T00:21:22.746Z,0
2017-12-28T00:21:51.090Z,0
2017-12-28T00:22:49.345Z,0
2017-12-28T00:23:17.718Z,0
2017-12-28T00:23:45.732Z,0
2017-12-28T00:24:15.195Z,0
2017-12-28T00:24:43.235Z,0
2017-12-28T00:25:11.697Z,0
2017-12-28T00:26:54.410Z,0
2017-12-28T00:27:22.812Z,0
2017-12-28T00:28:07.201Z,0
2017-12-28T00:28:35.559Z,0
2017-12-28T00:29:05.701Z,0
2017-12-28T00:29:34.172Z,0
2017-12-28T00:30:05.332Z,0
2017-12-28T00:30:48.168Z,0
2017-12-28T00:31:16.199Z,0
2017-12-28T00:31:45.639Z,0
2017-12-28T00:32:14.453Z,0
2017-12-28T00:32:43.270Z,0
2017-12-28T00:33:14.085Z,0
2017-12-28T00:33:43.399Z,0
2017-12-28T00:34:12.260Z,0
2017-12-28T00:34:40.709Z,0
2017-12-28T00:35:09.287Z,0
2017-12-28T00:36:22.949Z,0
2017-12-28T00:37:05.489Z,0
2017-12-28T00:37:48.030Z,0
2017-12-28T00:38:30.811Z,0
2017-12-28T00:38:59.660Z,0
2017-12-28T00:39:28.410Z,0
2017-12-28T00:41:09.098Z,0
2017-12-28T00:42:06.962Z,0
2017-12-28T00:42:34.990Z,0
2017-12-28T00:43:03.926Z,0
2017-12-28T00:43:32.836Z,0
2017-12-28T00:44:00.859Z,0
2017-12-28T00:44:29.305Z,0
2017-12-28T00:45:12.941Z,0
2017-12-28T00:45:41.209Z,0
2017-12-28T00:46:10.294Z,0
2017-12-28T00:46:39.215Z,0
2017-12-28T00:47:07.274Z,0
2017-12-28T00:47:53.509Z,0
2017-12-28T00:48:23.075Z,0
2017-12-28T00:48:51.925Z,0
2017-12-28T00:49:20.602Z,0
2017-12-28T00:49:49.483Z,0
2017-12-28T00:50:19.067Z,0
2017-12-28T00:50:48.242Z,0
2017-12-28T00:51:17.991Z,0
2017-12-28T00:52:46.348Z,0
2017-12-28T00:53:14.381Z,0
2017-12-28T00:53:42.920Z,0
2017-12-28T00:54:10.816Z,0
2017-12-28T00:55:36.449Z,0
2017-12-28T00:56:18.891Z,0
2017-12-28T00:56:48.043Z,0
2017-12-28T00:57:59.639Z,0
2017-12-28T00:58:28.664Z,0
2017-12-28T00:58:57.623Z,0
2017-12-28T00:59:25.948Z,0
2017-12-28T01:01:08.781Z,0
2017-12-28T01:01:38.309Z,0
2017-12-28T01:02:06.542Z,0
2017-12-28T01:03:32.230Z,0
2017-12-28T01:04:15.493Z,0
2017-12-28T01:04:44.716Z,0
2017-12-28T01:06:26.781Z,0
2017-12-28T01:06:55.469Z,0
2017-12-28T01:07:24.512Z,0
2017-12-28T01:08:36.105Z,0
2017-12-28T01:10:45.910Z,0
2017-12-28T01:11:14.349Z,0
2017-12-28T01:11:44.698Z,0
2017-12-28T01:12:15.043Z,0
2017-12-28T01:12:44.509Z,0
2017-12-28T01:13:45.061Z,0
2017-12-28T01:14:15.279Z,0
2017-12-28T01:14:44.214Z,0
2017-12-28T01:15:27.882Z,0
2017-12-28T01:15:55.891Z,0
2017-12-28T01:17:32.774Z,0
2017-12-28T01:18:01.114Z,0
2017-12-28T01:18:29.914Z,0
2017-12-28T01:18:58.296Z,0
2017-12-28T01:19:26.753Z,0
2017-12-28T01:19:55.527Z,0
2017-12-28T01:20:25.135Z,0
2017-12-28T01:20:53.996Z,0
2017-12-28T01:22:34.742Z,0
2017-12-28T01:23:03.295Z,0
2017-12-28T01:23:46.775Z,0
2017-12-28T01:24:29.732Z,0
2017-12-28T01:24:58.260Z,0
2017-12-28T01:25:26.530Z,0
2017-12-28T01:25:56.042Z,0
2017-12-28T01:26:53.651Z,0
2017-12-28T01:27:22.970Z,0
2017-12-28T01:27:51.416Z,0
2017-12-28T01:28:20.144Z,0
2017-12-28T01:29:47.207Z,0
2017-12-28T01:30:15.994Z,0
2017-12-28T01:30:46.079Z,0
2017-12-28T01:31:13.992Z,0
2017-12-28T01:31:43.575Z,0
2017-12-28T01:32:26.141Z,0
2017-12-28T01:34:07.352Z,0
2017-12-28T01:34:35.967Z,0
2017-12-28T01:35:03.976Z,0
2017-12-28T01:35:50.292Z,0
2017-12-28T01:36:19.153Z,0
2017-12-28T01:37:04.039Z,0
2017-12-28T01:37:32.726Z,0
2017-12-28T01:38:00.733Z,0
2017-12-28T01:38:29.079Z,0
2017-12-28T01:38:57.627Z,0
2017-12-28T01:39:25.897Z,0
2017-12-28T01:39:56.259Z,0
2017-12-28T01:40:54.351Z,0
2017-12-28T01:41:22.598Z,0
2017-12-28T01:42:05.158Z,0
2017-12-28T01:43:03.237Z,0
2017-12-28T01:43:47.201Z,0
2017-12-28T01:44:17.333Z,0
2017-12-28T01:44:45.624Z,0
2017-12-28T01:45:57.711Z,0
2017-12-28T01:46:40.941Z,0
2017-12-28T01:47:10.153Z,0
2017-12-28T01:47:39.396Z,0
2017-12-28T01:48:47.556Z,0
2017-12-28T01:49:17.486Z,0
2017-12-28T01:51:14.165Z,0
2017-12-28T01:51:42.985Z,0
2017-12-28T01:52:12.279Z,0
2017-12-28T01:52:42.005Z,0
2017-12-28T01:53:11.543Z,0
2017-12-28T01:53:40.308Z,0
2017-12-28T01:54:09.245Z,0
2017-12-28T01:56:49.421Z,0
2017-12-28T01:57:32.360Z,0
2017-12-28T01:58:00.789Z,0
2017-12-28T01:58:58.448Z,0
2017-12-28T01:59:27.268Z,0
2017-12-28T01:59:56.220Z,0
2017-12-28T02:00:25.943Z,0
2017-12-28T02:00:55.578Z,0
2017-12-28T02:01:54.659Z,0
2017-12-28T02:02:38.819Z,0
2017-12-28T02:03:22.825Z,0
2017-12-28T02:03:52.503Z,0
2017-12-28T02:04:23.105Z,0
2017-12-28T02:07:16.300Z,0
2017-12-28T02:08:44.130Z,0
2017-12-28T02:09:13.596Z,0
2017-12-28T02:09:41.933Z,0
2017-12-28T02:10:41.356Z,0
2017-12-28T02:11:10.206Z,0
2017-12-28T02:11:38.639Z,0
2017-12-28T02:12:22.789Z,0
2017-12-28T02:12:52.446Z,0
2017-12-28T02:14:47.758Z,0
2017-12-28T02:15:17.081Z,0
2017-12-28T02:16:00.315Z,0
2017-12-28T02:17:46.080Z,0
2017-12-28T02:18:17.830Z,0
2017-12-28T02:19:00.873Z,0
2017-12-28T02:19:29.612Z,0
2017-12-28T02:19:58.049Z,0
2017-12-28T02:20:41.110Z,0
2017-12-28T02:21:25.635Z,0
2017-12-28T02:21:54.790Z,0
2017-12-28T02:23:36.775Z,0
2017-12-28T02:24:05.018Z,0
2017-12-28T02:24:33.013Z,0
2017-12-28T02:25:16.069Z,0
2017-12-28T02:25:45.417Z,0
2017-12-28T02:26:14.178Z,0
2017-12-28T02:26:44.162Z,0
2017-12-28T02:27:27.223Z,0
2017-12-28T02:27:55.585Z,0
2017-12-28T02:28:23.606Z,0
2017-12-28T02:29:49.267Z,0
2017-12-28T02:31:00.573Z,0
2017-12-28T02:31:28.996Z,0
2017-12-28T02:31:58.252Z,0
2017-12-28T02:32:26.679Z,0
2017-12-28T02:32:55.883Z,0
2017-12-28T02:33:24.322Z,0
2017-12-28T02:33:53.285Z,0
2017-12-28T02:34:22.964Z,0
2017-12-28T02:34:50.890Z,0
2017-12-28T02:35:20.130Z,0
2017-12-28T02:37:43.657Z,0
2017-12-28T02:38:26.194Z,0
2017-12-28T02:38:54.241Z,0
2017-12-28T02:39:22.618Z,0
2017-12-28T02:39:50.649Z,0
2017-12-28T02:40:18.680Z,0
2017-12-28T02:40:47.626Z,0
2017-12-28T02:41:17.035Z,0
2017-12-28T02:42:15.023Z,0
2017-12-28T02:42:43.659Z,0
2017-12-28T02:44:08.989Z,0
2017-12-28T02:44:51.512Z,0
2017-12-28T02:45:19.922Z,0
2017-12-28T02:45:48.665Z,0
2017-12-28T02:46:31.877Z,0
2017-12-28T02:47:01.275Z,0
2017-12-28T02:47:44.222Z,0
2017-12-28T02:48:12.579Z,0
2017-12-28T02:48:40.585Z,0
2017-12-28T02:50:22.064Z,0
2017-12-28T02:50:50.836Z,0
2017-12-28T02:51:33.393Z,0
2017-12-28T02:52:01.753Z,0
2017-12-28T02:52:31.421Z,0
2017-12-28T02:53:00.113Z,0
2017-12-28T02:53:28.137Z,0
2017-12-28T02:54:27.521Z,0
2017-12-28T02:55:25.140Z,0
2017-12-28T02:56:22.858Z,0
2017-12-28T02:56:51.303Z,0
2017-12-28T02:58:17.213Z,0
2017-12-28T02:59:29.874Z,0
2017-12-28T02:59:58.930Z,0
2017-12-28T03:00:28.173Z,0
2017-12-28T03:00:56.364Z,0
2017-12-28T03:01:24.798Z,0
2017-12-28T03:01:54.105Z,0
2017-12-28T03:02:22.952Z,0
2017-12-28T03:03:06.704Z,0
2017-12-28T03:03:35.460Z,0
2017-12-28T03:04:03.802Z,0
2017-12-28T03:04:32.819Z,0
2017-12-28T03:05:01.665Z,0
2017-12-28T03:05:46.007Z,0
2017-12-28T03:06:15.751Z,0
2017-12-28T03:06:45.288Z,0
2017-12-28T03:07:56.707Z,0
2017-12-28T03:08:25.162Z,0
2017-12-28T03:09:22.836Z,0
2017-12-28T03:09:50.848Z,0
2017-12-28T03:10:34.540Z,0
2017-12-28T03:11:46.055Z,0
2017-12-28T03:13:02.835Z,0
2017-12-28T03:13:46.146Z,0
2017-12-28T03:14:15.510Z,0
2017-12-28T03:14:44.611Z,0
2017-12-28T03:15:13.057Z,0
2017-12-28T03:15:43.124Z,0
2017-12-28T03:16:25.716Z,0
2017-12-28T03:16:54.277Z,0
2017-12-28T03:18:35.028Z,0
2017-12-28T03:19:03.842Z,0
2017-12-28T03:19:32.726Z,0
2017-12-28T03:20:01.678Z,0
2017-12-28T03:20:30.201Z,0
2017-12-28T03:20:59.249Z,0
2017-12-28T03:21:29.007Z,0
2017-12-28T03:22:26.284Z,0
2017-12-28T03:22:54.727Z,0
2017-12-28T03:23:23.579Z,0
2017-12-28T03:23:53.307Z,0
2017-12-28T03:24:21.350Z,0
2017-12-28T03:24:50.722Z,0
2017-12-28T03:25:18.655Z,0
2017-12-28T03:25:47.092Z,0
2017-12-28T03:26:16.131Z,0
2017-12-28T03:26:45.335Z,0
2017-12-28T03:27:13.753Z,0
2017-12-28T03:27:44.798Z,0
2017-12-28T03:28:12.830Z,0
2017-12-28T03:28:41.626Z,0
2017-12-28T03:29:09.848Z,0
2017-12-28T03:29:38.280Z,0
2017-12-28T03:30:08.426Z,0
2017-12-28T03:30:36.789Z,0
2017-12-28T03:31:20.333Z,0
2017-12-28T03:31:48.695Z,0
2017-12-28T03:32:17.656Z,0
2017-12-28T03:32:46.032Z,0
2017-12-28T03:34:41.950Z,0
2017-12-28T03:35:10.068Z,0
2017-12-28T03:35:39.193Z,0
2017-12-28T03:36:22.480Z,0
2017-12-28T03:36:50.496Z,0
2017-12-28T03:37:18.934Z,0
2017-12-28T03:37:48.498Z,0
2017-12-28T03:38:18.199Z,0
2017-12-28T03:40:26.755Z,0
2017-12-28T03:41:10.788Z,0
2017-12-28T03:41:40.031Z,0
2017-12-28T03:42:07.936Z,0
2017-12-28T03:43:48.496Z,0
2017-12-28T03:44:17.600Z,0
2017-12-28T03:45:01.756Z,0
2017-12-28T03:45:30.657Z,0
2017-12-28T03:45:58.672Z,0
2017-12-28T03:46:27.091Z,0
2017-12-28T03:46:56.617Z,0
2017-12-28T03:48:36.937Z,0
2017-12-28T03:49:05.520Z,0
2017-12-28T03:49:33.749Z,0
2017-12-28T03:50:01.997Z,0
2017-12-28T03:50:30.765Z,0
2017-12-28T03:51:13.646Z,0
2017-12-28T03:51:57.540Z,0
2017-12-28T03:52:54.815Z,0
2017-12-28T03:53:52.452Z,0
2017-12-28T03:54:20.800Z,0
2017-12-28T03:54:50.395Z,0
2017-12-28T03:55:33.440Z,0
2017-12-28T03:56:02.700Z,0
2017-12-28T03:56:32.082Z,0
2017-12-28T03:57:02.158Z,0
2017-12-28T03:57:45.742Z,0
2017-12-28T03:59:25.712Z,0
2017-12-28T03:59:54.147Z,0
2017-12-28T04:00:51.201Z,0
2017-12-28T04:02:04.910Z,0
2017-12-28T04:02:49.161Z,0
2017-12-28T04:03:17.306Z,0
2017-12-28T04:03:48.311Z,0
2017-12-28T04:04:17.341Z,0
2017-12-28T04:04:46.344Z,0
2017-12-28T04:05:14.378Z,0
2017-12-28T04:05:43.063Z,0
2017-12-28T04:07:51.885Z,0
2017-12-28T04:08:20.863Z,0
2017-12-28T04:08:49.680Z,0
2017-12-28T04:09:18.095Z,0
2017-12-28T04:09:46.703Z,0
2017-12-28T04:10:58.997Z,0
2017-12-28T04:11:28.125Z,0
2017-12-28T04:11:56.562Z,0
2017-12-28T04:12:25.620Z,0
2017-12-28T04:12:53.628Z,0
2017-12-28T04:13:21.850Z,0
2017-12-28T04:14:05.396Z,0
2017-12-28T04:14:34.415Z,0
2017-12-28T04:15:03.254Z,0
2017-12-28T04:15:31.703Z,0
2017-12-28T04:16:29.404Z,0
2017-12-28T04:16:58.073Z,0
2017-12-28T04:17:26.499Z,0
2017-12-28T04:17:55.364Z,0
2017-12-28T04:18:25.962Z,0
2017-12-28T04:19:08.335Z,0
2017-12-28T04:19:36.854Z,0
2017-12-28T04:20:05.626Z,0
2017-12-28T04:20:34.048Z,0
2017-12-28T04:21:02.281Z,0
2017-12-28T04:21:30.447Z,0
2017-12-28T04:22:42.400Z,0
2017-12-28T04:24:08.892Z,0
2017-12-28T04:24:37.473Z,0
2017-12-28T04:25:05.687Z,0
2017-12-28T04:25:34.120Z,0
2017-12-28T04:26:02.129Z,0
2017-12-28T04:26:30.487Z,0
2017-12-28T04:26:58.727Z,0
2017-12-28T04:27:28.117Z,0
2017-12-28T04:27:56.830Z,0
2017-12-28T04:29:08.538Z,0
2017-12-28T04:30:05.644Z,0
2017-12-28T04:30:35.717Z,0
2017-12-28T04:31:03.745Z,0
2017-12-28T04:31:31.758Z,0
2017-12-28T04:31:59.759Z,0
2017-12-28T04:33:25.902Z,0
2017-12-28T04:34:09.249Z,0
2017-12-28T04:34:38.040Z,0
2017-12-28T04:35:21.712Z,0
2017-12-28T04:35:50.172Z,0
2017-12-28T04:36:18.732Z,0
2017-12-28T04:36:46.630Z,0
2017-12-28T04:37:15.182Z,0
2017-12-28T04:37:43.632Z,0
2017-12-28T04:38:12.339Z,0
2017-12-28T04:38:55.563Z,0
2017-12-28T04:39:24.752Z,0
2017-12-28T04:39:54.442Z,0
2017-12-28T04:41:06.669Z,0
2017-12-28T04:41:35.248Z,0
2017-12-28T04:42:04.565Z,0
2017-12-28T04:42:32.921Z,0
2017-12-28T04:43:01.781Z,0
2017-12-28T04:43:30.101Z,0
2017-12-28T04:44:12.986Z,0
2017-12-28T04:44:41.849Z,0
2017-12-28T04:45:09.766Z,0
2017-12-28T04:45:38.126Z,0
2017-12-28T04:46:06.304Z,0
2017-12-28T04:46:34.557Z,0
2017-12-28T04:47:03.002Z,0
2017-12-28T04:47:31.012Z,0
2017-12-28T04:48:14.300Z,0
2017-12-28T04:48:58.044Z,0
2017-12-28T04:49:26.052Z,0
2017-12-28T04:49:54.383Z,0
2017-12-28T04:50:23.511Z,0
2017-12-28T04:50:52.363Z,0
2017-12-28T04:51:20.396Z,0
2017-12-28T04:51:49.642Z,0
2017-12-28T04:52:19.517Z,0
2017-12-28T04:53:03.638Z,0
2017-12-28T04:53:46.441Z,0
2017-12-28T04:54:16.571Z,0
2017-12-28T04:55:28.006Z,0
2017-12-28T04:55:56.853Z,0
2017-12-28T04:56:26.052Z,0
2017-12-28T04:56:54.060Z,0
2017-12-28T04:57:23.149Z,0
2017-12-28T04:57:51.717Z,0
2017-12-28T04:58:34.902Z,0
2017-12-28T04:59:03.727Z,0
2017-12-28T04:59:31.765Z,0
2017-12-28T05:00:14.716Z,0
2017-12-28T05:00:43.380Z,0
2017-12-28T05:01:11.381Z,0
2017-12-28T05:01:40.014Z,0
2017-12-28T05:02:38.192Z,0
2017-12-28T05:03:07.037Z,0
2017-12-28T05:03:35.475Z,0
2017-12-28T05:04:18.380Z,0
2017-12-28T05:04:46.408Z,0
2017-12-28T05:05:14.430Z,0
2017-12-28T05:05:43.631Z,0
2017-12-28T05:06:11.979Z,0
2017-12-28T05:06:40.524Z,0
2017-12-28T05:07:09.937Z,0
2017-12-28T05:07:39.684Z,0
2017-12-28T05:08:08.112Z,0
2017-12-28T05:08:36.882Z,0
2017-12-28T05:09:06.267Z,0
2017-12-28T05:09:34.715Z,0
2017-12-28T05:10:32.625Z,0
2017-12-28T05:11:44.283Z,0
2017-12-28T05:12:13.494Z,0
2017-12-28T05:12:42.265Z,0
2017-12-28T05:13:11.267Z,0
2017-12-28T05:13:55.290Z,0
2017-12-28T05:14:25.318Z,0
2017-12-28T05:15:08.852Z,0
2017-12-28T05:15:37.714Z,0
2017-12-28T05:16:06.290Z,0
2017-12-28T05:16:48.846Z,0
2017-12-28T05:17:31.388Z,0
2017-12-28T05:18:14.578Z,0
2017-12-28T05:18:43.015Z,0
2017-12-28T05:19:12.686Z,0
2017-12-28T05:19:43.216Z,0
2017-12-28T05:20:12.354Z,0
2017-12-28T05:20:55.256Z,0
2017-12-28T05:21:38.316Z,0
2017-12-28T05:22:07.639Z,0
2017-12-28T05:22:36.604Z,0
2017-12-28T05:23:04.930Z,0
2017-12-28T05:23:33.969Z,0
2017-12-28T05:24:03.246Z,0
2017-12-28T05:24:31.885Z,0
2017-12-28T05:25:00.148Z,0
2017-12-28T05:25:28.385Z,0
2017-12-28T05:25:56.403Z,0
2017-12-28T05:26:25.137Z,0
2017-12-28T05:26:53.096Z,0
2017-12-28T05:27:21.995Z,0
2017-12-28T05:27:49.995Z,0
2017-12-28T05:28:18.805Z,0
2017-12-28T05:28:48.864Z,0
2017-12-28T05:29:17.665Z,0
2017-12-28T05:29:46.900Z,0
2017-12-28T05:30:15.545Z,0
2017-12-28T05:30:58.341Z,0
2017-12-28T05:31:28.086Z,0
2017-12-28T05:31:56.949Z,0
2017-12-28T05:32:25.707Z,0
2017-12-28T05:32:55.157Z,0
2017-12-28T05:33:23.930Z,0
2017-12-28T05:33:52.784Z,0
2017-12-28T05:34:20.794Z,0
2017-12-28T05:35:19.301Z,0
2017-12-28T05:35:47.960Z,0
2017-12-28T05:36:16.422Z,0
2017-12-28T05:36:44.950Z,0
2017-12-28T05:37:12.983Z,0
2017-12-28T05:37:42.332Z,0
2017-12-28T05:38:10.348Z,0
2017-12-28T05:38:38.908Z,0
2017-12-28T05:39:07.446Z,0
2017-12-28T05:39:35.464Z,0
2017-12-28T05:40:05.686Z,0
2017-12-28T05:41:29.562Z,0
2017-12-28T05:41:58.758Z,0
2017-12-28T05:42:26.770Z,0
2017-12-28T05:42:55.437Z,0
2017-12-28T05:43:24.383Z,0
2017-12-28T05:43:52.446Z,0
2017-12-28T05:45:33.140Z,0
2017-12-28T05:46:01.487Z,0
2017-12-28T05:46:29.930Z,0
2017-12-28T05:46:58.458Z,0
2017-12-28T05:47:26.888Z,0
2017-12-28T05:48:38.566Z,0
2017-12-28T05:49:08.281Z,0
2017-12-28T05:49:36.659Z,0
2017-12-28T05:50:06.163Z,0
2017-12-28T05:50:35.623Z,0
2017-12-28T05:52:01.377Z,0
2017-12-28T05:52:29.392Z,0
2017-12-28T05:52:57.643Z,0
2017-12-28T05:53:26.451Z,0
2017-12-28T05:53:54.876Z,0
2017-12-28T05:54:22.877Z,0
2017-12-28T05:54:52.102Z,0
2017-12-28T05:55:21.764Z,0
2017-12-28T05:55:50.845Z,0
2017-12-28T05:56:19.498Z,0
2017-12-28T05:56:48.637Z,0
2017-12-28T05:57:17.579Z,0
2017-12-28T05:57:46.762Z,0
2017-12-28T05:59:14.015Z,0
2017-12-28T05:59:43.375Z,0
2017-12-28T06:00:12.203Z,0
2017-12-28T06:00:41.297Z,0
2017-12-28T06:01:10.072Z,0
2017-12-28T06:01:38.849Z,0
2017-12-28T06:02:07.301Z,0
2017-12-28T06:02:35.322Z,0
2017-12-28T06:03:03.338Z,0
2017-12-28T06:03:32.301Z,0
2017-12-28T06:04:00.727Z,0
2017-12-28T06:04:28.630Z,0
2017-12-28T06:04:57.479Z,0
2017-12-28T06:05:26.330Z,0
2017-12-28T06:05:55.636Z,0
2017-12-28T06:06:23.553Z,0
2017-12-28T06:06:52.416Z,0
2017-12-28T06:07:20.949Z,0
2017-12-28T06:07:50.239Z,0
2017-12-28T06:08:32.695Z,0
2017-12-28T06:09:01.238Z,0
2017-12-28T06:09:30.790Z,0
2017-12-28T06:10:59.025Z,0
2017-12-28T06:11:29.378Z,0
2017-12-28T06:11:57.767Z,0
2017-12-28T06:12:28.097Z,0
2017-12-28T06:12:56.011Z,0
2017-12-28T06:13:24.010Z,0
2017-12-28T06:14:06.776Z,0
2017-12-28T06:15:05.270Z,0
2017-12-28T06:15:34.994Z,0
2017-12-28T06:16:04.232Z,0
2017-12-28T06:16:33.832Z,0
2017-12-28T06:17:17.216Z,0
2017-12-28T06:18:00.697Z,0
2017-12-28T06:18:28.618Z,0
2017-12-28T06:18:56.853Z,0
2017-12-28T06:19:25.279Z,0
2017-12-28T06:19:53.708Z,0
2017-12-28T06:20:22.462Z,0
2017-12-28T06:20:50.890Z,0
2017-12-28T06:21:19.330Z,0
2017-12-28T06:21:49.340Z,0
2017-12-28T06:22:19.230Z,0
2017-12-28T06:23:02.021Z,0
2017-12-28T06:23:30.996Z,0
2017-12-28T06:24:44.824Z,0
2017-12-28T06:25:12.846Z,0
2017-12-28T06:26:38.711Z,0
2017-12-28T06:27:50.540Z,0
2017-12-28T06:28:19.209Z,0
2017-12-28T06:29:54.345Z,0
2017-12-28T06:30:22.787Z,0
2017-12-28T06:30:51.226Z,0
2017-12-28T06:32:18.499Z,0
2017-12-28T06:33:01.584Z,0
2017-12-28T06:33:44.852Z,0
2017-12-28T06:34:13.307Z,0
2017-12-28T06:34:43.520Z,0
2017-12-28T06:35:27.056Z,0
2017-12-28T06:35:55.087Z,0
2017-12-28T06:36:23.816Z,0
2017-12-28T06:36:52.986Z,0
2017-12-28T06:37:21.834Z,0
2017-12-28T06:38:05.809Z,0
2017-12-28T06:38:49.396Z,0
2017-12-28T06:40:44.874Z,0
2017-12-28T06:42:25.783Z,0
2017-12-28T06:43:37.001Z,0
2017-12-28T06:44:05.463Z,0
2017-12-28T06:44:34.504Z,0
2017-12-28T06:45:17.051Z,0
2017-12-28T06:46:16.038Z,0
2017-12-28T06:46:50.637Z,0
2017-12-28T06:48:47.304Z,0
2017-12-28T06:49:17.093Z,0
2017-12-28T06:49:45.647Z,0
2017-12-28T06:50:13.662Z,0
2017-12-28T06:50:42.534Z,0
2017-12-28T06:51:26.713Z,0
2017-12-28T06:51:55.923Z,0
2017-12-28T06:52:23.833Z,0
2017-12-28T06:52:52.874Z,0
2017-12-28T06:53:21.203Z,0
2017-12-28T06:54:34.160Z,0
2017-12-28T06:55:03.874Z,0
2017-12-28T06:55:32.402Z,0
2017-12-28T06:56:00.768Z,0
2017-12-28T06:57:11.714Z,0
2017-12-28T06:57:40.606Z,0
2017-12-28T06:58:23.026Z,0
2017-12-28T06:58:53.043Z,0
2017-12-28T07:01:16.939Z,0
2017-12-28T07:02:04.432Z,0
2017-12-28T07:02:33.468Z,0
2017-12-28T07:03:02.830Z,0
2017-12-28T07:03:31.576Z,0
2017-12-28T07:04:00.029Z,0
2017-12-28T07:04:43.706Z,0
2017-12-28T07:06:55.101Z,0
2017-12-28T07:07:38.867Z,0
2017-12-28T07:08:06.887Z,0
2017-12-28T07:08:36.811Z,0
2017-12-28T07:09:05.641Z,0
2017-12-28T07:09:49.333Z,0
2017-12-28T07:10:18.016Z,0
2017-12-28T07:13:24.975Z,0
2017-12-28T07:16:03.802Z,0
2017-12-28T07:16:32.274Z,0
2017-12-28T07:17:17.067Z,0
2017-12-28T07:18:29.973Z,0
2017-12-28T07:20:27.283Z,0
2017-12-28T07:21:55.018Z,0
2017-12-28T07:22:23.363Z,0
2017-12-28T07:22:52.136Z,0
2017-12-28T07:23:20.656Z,0
2017-12-28T07:24:46.727Z,0
2017-12-28T07:25:16.171Z,0
2017-12-28T07:25:59.343Z,0
2017-12-28T07:26:42.700Z,0
2017-12-28T07:27:26.047Z,0
2017-12-28T07:27:54.831Z,0
2017-12-28T07:28:24.416Z,0
2017-12-28T07:29:08.084Z,0
2017-12-28T07:29:37.900Z,0
2017-12-28T07:30:35.745Z,0
2017-12-28T07:33:12.496Z,0
2017-12-28T07:33:41.143Z,0
2017-12-28T07:34:40.189Z,0
2017-12-28T07:35:22.979Z,0
2017-12-28T07:36:07.751Z,0
2017-12-28T07:36:37.336Z,0
2017-12-28T07:38:03.209Z,0
2017-12-28T07:38:32.416Z,0
2017-12-28T07:39:59.718Z,0
2017-12-28T07:40:28.683Z,0
2017-12-28T07:41:25.975Z,0
2017-12-28T07:42:10.372Z,0
2017-12-28T07:42:53.223Z,0
2017-12-28T07:43:22.444Z,0
2017-12-28T07:43:50.453Z,0
2017-12-28T07:46:02.846Z,0
2017-12-28T07:46:32.226Z,0
2017-12-28T07:47:15.184Z,0
2017-12-28T07:47:57.637Z,0
2017-12-28T07:48:26.821Z,0
2017-12-28T07:48:54.754Z,0
2017-12-28T07:49:37.301Z,0
2017-12-28T07:50:20.684Z,0
2017-12-28T07:50:50.366Z,0
2017-12-28T07:51:20.472Z,0
2017-12-28T07:51:49.191Z,0
2017-12-28T07:52:18.234Z,0
2017-12-28T07:53:02.401Z,0
2017-12-28T07:53:31.173Z,0
2017-12-28T07:54:00.461Z,0
2017-12-28T07:54:43.842Z,0
2017-12-28T07:55:13.186Z,0
2017-12-28T07:55:41.642Z,0
2017-12-28T07:56:26.215Z,0
2017-12-28T07:57:10.275Z,0
2017-12-28T07:57:53.805Z,0
2017-12-28T07:58:23.608Z,0
2017-12-28T07:59:49.965Z,0
2017-12-28T08:00:34.190Z,0
2017-12-28T08:01:18.334Z,0
2017-12-28T08:02:58.867Z,0
2017-12-28T08:03:43.051Z,0
2017-12-28T08:04:42.739Z,0
2017-12-28T08:05:25.254Z,0
2017-12-28T08:06:51.333Z,0
2017-12-28T08:07:34.562Z,0
2017-12-28T08:08:18.554Z,0
2017-12-28T08:08:47.544Z,0
2017-12-28T08:09:16.164Z,0
2017-12-28T08:09:59.464Z,0
2017-12-28T08:10:42.409Z,0
2017-12-28T08:11:10.889Z,0
2017-12-28T08:11:41.833Z,0
2017-12-28T08:12:11.135Z,0
2017-12-28T08:12:40.622Z,0
2017-12-28T08:13:23.624Z,0
2017-12-28T08:14:49.414Z,0
2017-12-28T08:15:33.131Z,0
2017-12-28T08:16:16.028Z,0
2017-12-28T08:17:14.224Z,0
2017-12-28T08:17:58.559Z,0
2017-12-28T08:18:27.815Z,0
2017-12-28T08:18:56.372Z,0
2017-12-28T08:19:25.968Z,0
2017-12-28T08:20:09.197Z,0
2017-12-28T08:23:31.570Z,0
2017-12-28T08:24:02.147Z,0
2017-12-28T08:24:31.254Z,0
2017-12-28T08:25:29.125Z,5
2017-12-28T08:26:27.632Z,5
2017-12-28T08:26:55.939Z,5
2017-12-28T08:27:39.931Z,5
2017-12-28T08:28:37.708Z,5
2017-12-28T08:29:08.426Z,5
2017-12-28T08:30:06.288Z,5
2017-12-28T08:31:03.788Z,10
2017-12-28T08:32:30.249Z,10
2017-12-28T08:34:40.266Z,15
2017-12-28T08:35:23.063Z,15
2017-12-28T08:37:33.217Z,20
2017-12-28T08:38:03.738Z,20
2017-12-28T08:39:44.017Z,25
2017-12-28T08:40:12.279Z,25
2017-12-28T08:40:57.654Z,25
2017-12-28T08:41:55.503Z,30
2017-12-28T08:42:23.930Z,30
2017-12-28T08:42:52.730Z,30
2017-12-28T08:43:21.539Z,30
2017-12-28T08:43:51.570Z,30
2017-12-28T08:44:49.453Z,35
2017-12-28T08:45:32.936Z,35
2017-12-28T08:47:43.709Z,40
2017-12-28T08:48:12.953Z,40
2017-12-28T08:48:56.024Z,45
2017-12-28T08:49:40.246Z,45
2017-12-28T08:50:23.601Z,45
2017-12-28T08:51:35.129Z,45
2017-12-28T08:52:18.203Z,45
2017-12-28T08:52:46.484Z,45
2017-12-28T08:53:29.851Z,45
2017-12-28T08:54:56.095Z,45
2017-12-28T08:55:25.489Z,45
2017-12-28T08:55:55.286Z,45
2017-12-28T08:56:23.757Z,45
2017-12-28T08:57:49.396Z,45
2017-12-28T08:59:01.224Z,45
2017-12-28T08:59:43.997Z,45
2017-12-28T09:00:41.542Z,45
2017-12-28T09:01:53.825Z,45
2017-12-28T09:02:22.721Z,45
2017-12-28T09:02:50.990Z,45
2017-12-28T09:03:33.758Z,45
2017-12-28T09:04:16.326Z,45
2017-12-28T09:05:27.945Z,45
2017-12-28T09:06:12.033Z,45
2017-12-28T09:06:55.700Z,45
2017-12-28T09:07:24.245Z,45
2017-12-28T09:08:36.143Z,50
2017-12-28T09:09:05.594Z,50
2017-12-28T09:11:03.749Z,55
2017-12-28T09:12:02.669Z,55
2017-12-28T09:12:47.080Z,55
2017-12-28T09:13:59.950Z,60
2017-12-28T09:14:45.266Z,60
2017-12-28T09:15:42.247Z,60
2017-12-28T09:16:25.146Z,65
2017-12-28T09:17:08.821Z,65
2017-12-28T09:17:37.921Z,65
2017-12-28T09:18:05.942Z,65
2017-12-28T09:18:49.115Z,65
2017-12-28T09:19:17.883Z,65
2017-12-28T09:19:45.844Z,65
2017-12-28T09:20:14.513Z,65
2017-12-28T09:21:41.442Z,65
2017-12-28T09:23:35.910Z,70
2017-12-28T09:24:18.904Z,70
2017-12-28T09:25:16.387Z,70
2017-12-28T09:25:44.644Z,70
2017-12-28T09:26:13.439Z,70
2017-12-28T09:26:56.489Z,70
2017-12-28T09:27:24.787Z,70
2017-12-28T09:28:08.939Z,70
2017-12-28T09:28:38.607Z,70
2017-12-28T09:29:50.463Z,75
2017-12-28T09:30:19.391Z,75
2017-12-28T09:30:48.039Z,75
2017-12-28T09:31:16.277Z,75
2017-12-28T09:32:27.007Z,75
2017-12-28T09:32:55.032Z,75
2017-12-28T09:33:23.869Z,75
2017-12-28T09:33:53.061Z,75
2017-12-28T09:34:22.357Z,75
2017-12-28T09:34:50.392Z,75
2017-12-28T09:35:19.875Z,80
2017-12-28T09:35:48.212Z,80
2017-12-28T09:36:17.434Z,80
2017-12-28T09:36:46.173Z,85
2017-12-28T09:37:15.083Z,85
2017-12-28T09:37:43.428Z,90
2017-12-28T09:38:26.848Z,90
2017-12-28T09:38:55.515Z,95
2017-12-28T09:40:26.846Z,100
2017-12-28T09:41:10.186Z,105
2017-12-28T09:41:38.215Z,105
2017-12-28T09:42:06.793Z,110
2017-12-28T09:42:35.143Z,110
2017-12-28T09:43:46.577Z,115
2017-12-28T09:44:15.124Z,120
2017-12-28T09:44:43.484Z,120
2017-12-28T09:45:11.513Z,125
2017-12-28T09:45:40.494Z,125
2017-12-28T09:46:08.751Z,125
2017-12-28T09:46:51.302Z,125
2017-12-28T09:47:20.282Z,125
2017-12-28T09:47:48.737Z,125
2017-12-28T09:48:17.199Z,125
2017-12-28T09:48:46.021Z,125
2017-12-28T09:49:14.069Z,120
2017-12-28T09:49:56.612Z,120
2017-12-28T09:50:27.099Z,120
2017-12-28T09:50:55.150Z,115
2017-12-28T09:51:23.174Z,115
2017-12-28T09:52:06.618Z,115
2017-12-28T09:52:35.501Z,110
2017-12-28T09:53:04.324Z,110
2017-12-28T09:53:32.961Z,110
2017-12-28T09:54:01.833Z,110
2017-12-28T09:54:45.172Z,105
2017-12-28T09:55:13.545Z,105
2017-12-28T09:55:56.206Z,105
2017-12-28T09:57:07.205Z,100
2017-12-28T09:57:35.220Z,100
2017-12-28T09:58:03.233Z,105
2017-12-28T09:58:31.281Z,105
2017-12-28T09:58:59.734Z,105
2017-12-28T09:59:28.188Z,110
2017-12-28T09:59:56.628Z,110
2017-12-28T10:00:25.435Z,115
2017-12-28T10:00:53.893Z,115
2017-12-28T10:01:36.964Z,120
2017-12-28T10:02:19.943Z,125
2017-12-28T10:02:48.305Z,125
2017-12-28T10:03:16.331Z,130